Time;durP1;ratioP1;P1;durP2;ratioP2;P2;SDS_P1;SDS_P2;PMS_P1;PMS_P2;Temp;Humidity;BMP_temperature;BMP_pressure;BME280_temperature;BME280_humidity;BME280_pressure;Samples;Min_cycle;Max_cycle;Signal;HPM_P1;HPM_P2
2022/06/24 00:00:14;;;;;;;8.82;3.92;;;;;;;14.15;100.00;97307.56;5063630;28;20036;-91
2022/06/24 00:02:46;;;;;;;10.48;4.05;;;;;;;14.18;100.00;97304.78;5059300;28;20058;-92
2022/06/24 00:05:13;;;;;;;10.65;4.60;;;;;;;14.22;100.00;97306.34;5051010;28;20544;-91
2022/06/24 00:07:46;;;;;;;10.32;4.10;;;;;;;14.20;100.00;97300.34;5042605;28;20033;-91
2022/06/24 00:10:17;;;;;;;10.63;4.20;;;;;;;14.10;100.00;97301.72;5042290;28;20020;-92
2022/06/24 00:12:47;;;;;;;12.90;4.53;;;;;;;14.14;100.00;97304.09;5046807;28;20386;-92
2022/06/24 00:15:13;;;;;;;10.85;4.13;;;;;;;14.11;100.00;97296.41;5046028;28;20144;-91
2022/06/24 00:17:40;;;;;;;11.77;4.70;;;;;;;14.14;100.00;97295.38;5042852;28;20072;-93
2022/06/24 00:20:08;;;;;;;10.90;4.95;;;;;;;14.61;100.00;97280.91;5045318;28;20552;-90
2022/06/24 00:22:45;;;;;;;11.30;4.68;;;;;;;14.09;100.00;97281.66;5044232;28;20041;-91
2022/06/24 00:25:17;;;;;;;11.98;4.88;;;;;;;13.99;100.00;97274.22;5045322;28;20040;-91
2022/06/24 00:27:57;;;;;;;10.07;4.80;;;;;;;13.97;100.00;97262.09;5037059;28;20033;-91
2022/06/24 00:30:23;;;;;;;10.85;4.53;;;;;;;13.91;100.00;97276.34;5046861;28;20288;-90
2022/06/24 00:32:48;;;;;;;13.02;5.30;;;;;;;13.85;100.00;97276.63;5044119;28;20133;-91
2022/06/24 00:35:18;;;;;;;11.30;5.03;;;;;;;13.83;100.00;97281.06;5048039;28;20029;-92
2022/06/24 00:37:46;;;;;;;12.82;4.93;;;;;;;13.71;100.00;97284.25;5042196;28;20029;-92
2022/06/24 00:40:14;;;;;;;9.63;4.32;;;;;;;13.51;100.00;97293.03;5039391;28;20028;-91
2022/06/24 00:42:46;;;;;;;11.13;4.40;;;;;;;13.22;100.00;97282.03;5045714;28;20080;-92
2022/06/24 00:45:33;;;;;;;10.55;4.13;;;;;;;13.06;100.00;97290.53;5048556;28;20107;-92
2022/06/24 00:48:00;;;;;;;8.68;4.00;;;;;;;12.92;100.00;97288.50;5043710;28;20032;-91
2022/06/24 00:50:31;;;;;;;8.77;4.20;;;;;;;12.80;100.00;97270.69;5049812;28;20124;-91
2022/06/24 00:53:00;;;;;;;9.85;4.30;;;;;;;12.88;100.00;97268.63;5046108;28;20033;-92
2022/06/24 00:55:31;;;;;;;10.50;4.45;;;;;;;12.99;100.00;97265.56;5045098;28;20041;-91
2022/06/24 00:57:59;;;;;;;10.70;4.18;;;;;;;13.03;100.00;97259.28;5044845;28;20478;-92
2022/06/24 01:00:27;;;;;;;10.75;4.85;;;;;;;13.08;100.00;97256.44;5045667;28;20048;-92
2022/06/24 01:03:02;;;;;;;10.00;4.15;;;;;;;13.06;100.00;97250.44;5046348;28;20101;-91
2022/06/24 01:05:29;;;;;;;10.52;4.38;;;;;;;13.03;100.00;97251.41;5044932;28;20025;-92
2022/06/24 01:07:58;;;;;;;10.18;4.00;;;;;;;13.12;100.00;97256.25;5046081;28;20029;-91
2022/06/24 01:10:24;;;;;;;9.43;3.88;;;;;;;13.25;100.00;97259.19;5045152;28;20040;-91
2022/06/24 01:12:50;;;;;;;9.00;3.85;;;;;;;13.36;100.00;97257.88;5047524;28;20060;-91
2022/06/24 01:15:16;;;;;;;11.15;4.00;;;;;;;13.40;100.00;97260.31;5047495;28;20026;-91
2022/06/24 01:17:41;;;;;;;9.00;3.95;;;;;;;13.61;100.00;97248.03;5044059;28;20025;-92
2022/06/24 01:20:12;;;;;;;8.15;3.70;;;;;;;13.46;100.00;97254.78;5046825;28;20036;-92
2022/06/24 01:22:38;;;;;;;10.90;4.38;;;;;;;14.71;100.00;97245.47;5048555;28;20521;-91
2022/06/24 01:25:05;;;;;;;9.65;3.92;;;;;;;13.73;100.00;97249.22;5068764;28;20037;-92
2022/06/24 01:27:31;;;;;;;9.48;3.90;;;;;;;13.78;100.00;97251.63;5063507;28;20091;-92
2022/06/24 01:29:57;;;;;;;8.55;3.78;;;;;;;13.81;100.00;97256.72;5058172;28;20024;-92
2022/06/24 01:32:23;;;;;;;9.60;3.88;;;;;;;13.94;100.00;97260.47;5052322;28;20021;-92
2022/06/24 01:34:49;;;;;;;8.80;4.03;;;;;;;13.91;100.00;97250.13;5050296;28;20031;-92
2022/06/24 01:37:15;;;;;;;9.35;4.05;;;;;;;13.98;100.00;97251.53;5050656;28;20020;-91
2022/06/24 01:39:41;;;;;;;10.05;4.28;;;;;;;14.02;100.00;97264.53;5053709;28;20036;-91
2022/06/24 01:42:07;;;;;;;11.73;4.75;;;;;;;14.05;100.00;97274.84;5064247;28;20048;-91
2022/06/24 01:44:33;;;;;;;10.70;4.70;;;;;;;16.27;100.00;97253.03;5065888;28;20220;-91
2022/06/24 01:46:59;;;;;;;12.35;4.63;;;;;;;14.02;100.00;97259.28;5054158;28;20071;-90
2022/06/24 01:49:25;;;;;;;12.52;5.07;;;;;;;13.88;100.00;97265.16;5048248;28;20033;-92
2022/06/24 01:51:55;;;;;;;11.23;4.47;;;;;;;13.81;100.00;97270.66;5049233;28;20036;-93
2022/06/24 01:54:20;;;;;;;12.15;4.93;;;;;;;13.70;100.00;97278.19;5045376;28;20052;-91
2022/06/24 01:56:46;;;;;;;11.25;5.35;;;;;;;13.65;100.00;97281.00;5046178;28;20464;-91
2022/06/24 01:59:14;;;;;;;11.23;5.20;;;;;;;13.63;100.00;97282.84;5050448;28;20059;-91
2022/06/24 02:01:40;;;;;;;10.38;5.28;;;;;;;13.73;100.00;97287.66;5060398;28;20025;-91
2022/06/24 02:04:06;;;;;;;10.60;5.38;;;;;;;13.72;100.00;97288.59;5067738;28;20064;-92
2022/06/24 02:06:32;;;;;;;11.23;5.47;;;;;;;13.63;100.00;97282.84;5053368;28;20036;-92
2022/06/24 02:08:58;;;;;;;11.00;5.00;;;;;;;13.49;100.00;97275.59;5050031;28;20029;-92
2022/06/24 02:14:09;;;;;;;11.20;5.28;;;;;;;13.32;100.00;97271.09;5057198;28;20044;-91
2022/06/24 02:16:36;;;;;;;9.68;4.90;;;;;;;13.30;100.00;97258.97;5048812;28;20028;-91
2022/06/24 02:19:02;;;;;;;12.13;5.00;;;;;;;13.32;100.00;97258.00;5045532;28;20033;-93
2022/06/24 02:21:32;;;;;;;11.50;4.88;;;;;;;13.30;100.00;97261.59;5047381;28;20895;-91
2022/06/24 02:23:57;;;;;;;10.27;5.15;;;;;;;13.32;100.00;97265.00;5044556;28;20028;-93
2022/06/24 02:26:25;;;;;;;12.02;4.70;;;;;;;13.36;100.00;97265.75;5047793;28;20401;-92
2022/06/24 02:28:52;;;;;;;12.20;4.72;;;;;;;13.34;100.00;97257.09;5046966;28;20036;-93
2022/06/24 02:31:28;;;;;;;13.32;4.43;;;;;;;13.42;100.00;97253.22;5046621;28;20075;-92
2022/06/24 02:33:54;;;;;;;10.63;4.85;;;;;;;13.34;100.00;97250.06;5042919;28;20031;-92
2022/06/24 02:36:19;;;;;;;10.32;4.22;;;;;;;13.34;100.00;97239.59;5044181;28;20032;-92
2022/06/24 02:38:45;;;;;;;10.55;4.38;;;;;;;13.26;100.00;97233.84;5045768;28;20028;-92
2022/06/24 02:41:10;;;;;;;9.55;4.47;;;;;;;13.23;100.00;97229.59;5046618;28;20021;-92
2022/06/24 02:43:37;;;;;;;10.55;4.47;;;;;;;13.04;100.00;97226.94;5046538;28;20028;-92
2022/06/24 02:46:05;;;;;;;9.50;4.10;;;;;;;13.10;100.00;97234.53;5044677;28;20111;-92
2022/06/24 02:48:33;;;;;;;10.45;4.35;;;;;;;13.07;100.00;97225.94;5044680;28;20128;-93
2022/06/24 02:51:01;;;;;;;12.90;4.15;;;;;;;13.04;100.00;97229.56;5044179;28;20033;-93
2022/06/24 02:53:28;;;;;;;11.07;4.38;;;;;;;12.99;100.00;97231.53;5043599;28;20043;-92
2022/06/24 02:56:14;;;;;;;9.80;4.28;;;;;;;12.95;100.00;97230.81;5039439;28;20043;-92
2022/06/24 02:58:41;;;;;;;10.45;4.57;;;;;;;12.93;100.00;97232.66;5036557;28;20084;-93
2022/06/24 03:01:07;;;;;;;10.70;4.60;;;;;;;12.86;100.00;97239.06;5046329;28;20020;-92
2022/06/24 03:03:33;;;;;;;11.63;4.63;;;;;;;12.90;100.00;97248.47;5061991;28;20031;-92
2022/06/24 03:05:59;;;;;;;10.07;4.45;;;;;;;12.89;100.00;97240.72;5043995;28;20115;-92
2022/06/24 03:08:26;;;;;;;10.95;4.50;;;;;;;13.02;100.00;97247.09;5040615;28;20035;-93
2022/06/24 03:10:53;;;;;;;10.98;4.32;;;;;;;13.09;100.00;97239.84;5058559;28;20425;-93
2022/06/24 03:13:18;;;;;;;10.70;4.80;;;;;;;13.22;100.00;97240.13;5042322;28;20028;-93
2022/06/24 03:15:45;;;;;;;11.10;4.70;;;;;;;13.29;100.00;97237.19;5061999;28;20028;-95
2022/06/24 03:18:13;;;;;;;10.65;4.20;;;;;;;13.27;100.00;97228.53;5060753;28;20048;-96
2022/06/24 03:20:39;;;;;;;9.98;4.60;;;;;;;13.37;100.00;97228.16;5045528;28;20043;-94
2022/06/24 03:23:05;;;;;;;9.05;4.22;;;;;;;15.13;100.00;97204.81;5047659;28;20064;-95
2022/06/24 03:25:31;;;;;;;11.02;4.38;;;;;;;13.70;100.00;97202.19;5046860;28;20033;-95
2022/06/24 03:28:00;;;;;;;9.52;4.40;;;;;;;13.42;100.00;97203.47;5049904;28;20024;-95
2022/06/24 03:30:25;;;;;;;9.27;4.60;;;;;;;13.52;100.00;97209.13;5048981;28;20093;-95
2022/06/24 03:32:51;;;;;;;8.77;3.80;;;;;;;13.44;100.00;97224.34;5042150;28;20033;-95
2022/06/24 03:35:18;;;;;;;9.15;4.25;;;;;;;13.36;100.00;97226.47;5043200;28;20032;-94
2022/06/24 03:37:44;;;;;;;11.20;4.85;;;;;;;13.30;100.00;97228.44;5045823;28;20573;-95
2022/06/24 03:40:10;;;;;;;12.68;5.05;;;;;;;13.26;100.00;97220.75;5045062;28;20046;-95
2022/06/24 03:42:36;;;;;;;9.98;4.80;;;;;;;13.10;100.00;97225.84;5049384;28;20052;-95
2022/06/24 03:45:01;;;;;;;10.68;4.70;;;;;;;13.05;100.00;97219.94;5065636;28;20024;-96
2022/06/24 03:47:28;;;;;;;10.48;5.18;;;;;;;12.91;100.00;97226.63;5046990;28;20054;-94
2022/06/24 03:49:53;;;;;;;9.88;4.35;;;;;;;12.81;100.00;97222.69;5044901;28;20024;-95
2022/06/24 03:52:19;;;;;;;10.75;5.07;;;;;;;12.83;100.00;97209.56;5045923;28;20400;-95
2022/06/24 03:54:45;;;;;;;12.13;5.32;;;;;;;12.78;100.00;97200.13;5042766;28;20044;-95
2022/06/24 03:57:11;;;;;;;12.40;5.00;;;;;;;12.77;100.00;97200.22;5051541;28;20036;-95
2022/06/24 03:59:37;;;;;;;10.32;4.90;;;;;;;12.78;100.00;97194.06;5069935;28;20028;-95
2022/06/24 04:02:03;;;;;;;9.85;4.88;;;;;;;13.07;100.00;97187.56;5068766;28;20089;-94
2022/06/24 04:04:29;;;;;;;10.48;4.85;;;;;;;15.46;100.00;97151.41;5053256;28;20130;-94
2022/06/24 04:06:54;;;;;;;10.93;4.45;;;;;;;15.86;100.00;97132.59;5056632;28;20028;-94
2022/06/24 04:09:20;;;;;;;9.32;3.95;;;;;;;16.11;100.00;97128.56;5079047;28;20036;-95
2022/06/24 04:11:45;;;;;;;9.43;4.53;;;;;;;13.71;100.00;97132.31;5063909;28;20077;-94
2022/06/24 04:14:11;;;;;;;9.55;4.28;;;;;;;13.45;100.00;97150.94;5058625;28;20021;-94
2022/06/24 04:16:37;;;;;;;10.88;4.38;;;;;;;13.43;100.00;97159.78;5079590;28;20012;-94
2022/06/24 04:19:02;;;;;;;10.80;5.05;;;;;;;13.38;100.00;97146.09;5070175;28;20152;-95
2022/06/24 04:21:30;;;;;;;10.07;4.55;;;;;;;13.45;100.00;97152.72;5069758;28;20143;-95
2022/06/24 04:23:56;;;;;;;10.25;4.30;;;;;;;13.46;100.00;97149.19;5068853;28;20023;-95
2022/06/24 04:26:22;;;;;;;10.20;4.57;;;;;;;13.58;100.00;97142.53;5055065;28;20032;-94
2022/06/24 04:28:50;;;;;;;10.13;4.30;;;;;;;13.56;100.00;97150.47;5070183;28;20032;-95
2022/06/24 04:31:15;;;;;;;9.32;4.07;;;;;;;13.66;100.00;97141.22;5072182;28;20033;-95
2022/06/24 04:33:41;;;;;;;10.43;4.55;;;;;;;13.75;100.00;97152.19;5089579;28;20065;-93
2022/06/24 04:36:12;;;;;;;9.32;4.28;;;;;;;13.68;100.00;97146.44;5063556;28;20048;-95
2022/06/24 04:38:41;;;;;;;8.88;4.50;;;;;;;13.76;100.00;97149.50;5060328;28;20429;-94
2022/06/24 04:41:25;;;;;;;10.90;5.20;;;;;;;13.76;100.00;97143.41;5074621;28;20028;-95
2022/06/24 04:43:50;;;;;;;11.15;5.35;;;;;;;13.77;100.00;97150.38;5052984;28;20119;-94
2022/06/24 04:46:16;;;;;;;10.63;5.70;;;;;;;13.85;100.00;97145.63;5059769;28;20029;-94
2022/06/24 04:48:41;;;;;;;13.60;6.40;;;;;;;13.87;100.00;97138.50;5059236;28;20540;-94
2022/06/24 04:51:11;;;;;;;18.83;7.30;;;;;;;13.96;100.00;97139.84;5061064;28;20047;-95
2022/06/24 04:53:39;;;;;;;15.27;7.35;;;;;;;13.97;100.00;97150.25;5074923;28;20048;-95
2022/06/24 04:56:05;;;;;;;16.88;7.90;;;;;;;13.99;100.00;97140.53;5070940;28;20033;-94
2022/06/24 04:58:31;;;;;;;13.73;7.97;;;;;;;14.03;100.00;97141.25;5057502;28;20034;-94
2022/06/24 05:00:57;;;;;;;18.33;8.60;;;;;;;14.02;100.00;97146.56;5062835;28;20029;-95
2022/06/24 05:03:23;;;;;;;17.05;9.00;;;;;;;14.09;100.00;97148.78;5055567;28;20024;-94
2022/06/24 05:05:48;;;;;;;18.42;8.93;;;;;;;15.30;100.00;97153.16;5064817;28;20028;-94
2022/06/24 05:08:14;;;;;;;18.58;9.32;;;;;;;14.21;100.00;97142.13;5087699;28;20552;-94
2022/06/24 05:10:41;;;;;;;19.75;10.82;;;;;;;14.40;100.00;97154.28;5087907;28;20020;-94
2022/06/24 05:13:10;;;;;;;19.48;10.43;;;;;;;14.35;100.00;97149.28;5058921;28;20032;-93
2022/06/24 05:15:35;;;;;;;19.10;10.45;;;;;;;14.43;100.00;97151.50;5054460;28;20189;-93
2022/06/24 05:18:02;;;;;;;17.70;10.68;;;;;;;14.46;100.00;97146.97;5053038;28;20036;-94
2022/06/24 05:20:28;;;;;;;23.08;11.07;;;;;;;14.56;100.00;97147.34;5054585;28;20029;-92
2022/06/24 05:22:54;;;;;;;19.95;10.20;;;;;;;14.53;100.00;97147.50;5056232;28;20089;-95
2022/06/24 05:25:19;;;;;;;20.05;11.07;;;;;;;14.55;100.00;97150.91;5051623;28;20027;-94
2022/06/24 05:27:45;;;;;;;20.17;10.02;;;;;;;14.49;100.00;97140.72;5054431;28;20032;-93
2022/06/24 05:30:11;;;;;;;20.48;10.77;;;;;;;14.44;100.00;97151.44;5048734;28;20127;-95
2022/06/24 05:32:36;;;;;;;20.10;11.68;;;;;;;14.48;100.00;97142.47;5051738;28;20054;-94
2022/06/24 05:35:02;;;;;;;21.77;10.65;;;;;;;14.43;100.00;97141.03;5053650;28;20036;-95
2022/06/24 05:37:28;;;;;;;19.38;11.05;;;;;;;14.39;100.00;97147.34;5067782;28;20068;-96
2022/06/24 05:40:07;;;;;;;20.02;11.65;;;;;;;14.31;100.00;97139.88;5052477;28;20028;-96
2022/06/24 05:42:34;;;;;;;20.30;10.75;;;;;;;14.34;100.00;97148.41;5053991;28;20036;-94
2022/06/24 05:45:06;;;;;;;18.90;10.98;;;;;;;14.29;100.00;97147.81;5053077;28;20024;-94
2022/06/24 05:47:34;;;;;;;22.07;10.67;;;;;;;14.29;100.00;97145.19;5055098;28;20116;-94
2022/06/24 05:50:00;;;;;;;18.30;10.68;;;;;;;14.34;100.00;97148.41;5055561;28;20126;-95
2022/06/24 05:55:10;;;;;;;25.02;13.98;;;;;;;14.51;100.00;97158.06;5072687;28;20043;-96
2022/06/24 05:57:37;;;;;;;26.20;14.88;;;;;;;14.62;100.00;97154.94;5052454;28;20151;-96
2022/06/24 06:00:04;;;;;;;25.48;14.90;;;;;;;14.77;100.00;97155.91;5052150;28;20059;-95
2022/06/24 06:02:32;;;;;;;26.17;14.55;;;;;;;14.76;100.00;97143.72;5056256;28;20484;-94
2022/06/24 06:04:58;;;;;;;26.05;14.80;;;;;;;14.82;100.00;97147.78;5066045;28;20099;-93
2022/06/24 06:07:23;;;;;;;25.92;13.15;;;;;;;14.89;100.00;97145.72;5065803;28;20021;-94
2022/06/24 06:09:51;;;;;;;22.42;13.45;;;;;;;14.94;100.00;97146.31;5052832;28;20035;-94
2022/06/24 06:12:18;;;;;;;24.30;13.27;;;;;;;14.95;100.00;97151.50;5044686;28;20020;-96
2022/06/24 06:15:13;;;;;;;23.17;13.18;;;;;;;14.89;100.00;97135.22;5051774;28;20047;-96
2022/06/24 06:17:53;;;;;;;22.10;12.25;;;;;;;14.81;100.00;97141.72;5050509;28;20043;-95
2022/06/24 06:20:35;;;;;;;23.75;13.23;;;;;;;14.83;100.00;97139.00;5056576;28;21013;-94
2022/06/24 06:23:04;;;;;;;23.02;13.48;;;;;;;14.96;100.00;97144.44;5018512;23;20133;-96
2022/06/24 06:25:34;;;;;;;24.70;14.80;;;;;;;14.92;100.00;97142.91;4991115;28;20027;-95
2022/06/24 06:28:13;;;;;;;;;;;;;;;;;;;;;
2022/06/24 06:30:39;;;;;;;30.50;17.20;;;;;;;15.05;100.00;97141.34;4979444;28;20022;-96
2022/06/24 06:33:05;;;;;;;32.88;15.88;;;;;;;15.14;100.00;97134.75;4985952;28;20105;-95
2022/06/24 06:35:39;;;;;;;28.52;16.80;;;;;;;15.11;100.00;97134.91;5002554;28;20046;-96
2022/06/24 06:38:05;;;;;;;26.63;15.68;;;;;;;15.19;100.00;97135.34;4989661;28;20026;-96
2022/06/24 06:40:34;;;;;;;27.40;16.27;;;;;;;15.29;100.00;97141.78;4986645;28;20041;-95
2022/06/24 06:43:01;;;;;;;28.48;16.08;;;;;;;15.29;100.00;97141.78;5004107;28;20030;-96
2022/06/24 06:45:27;;;;;;;27.15;15.80;;;;;;;15.54;100.00;97137.84;4982608;28;20121;-96
2022/06/24 06:47:53;;;;;;;26.65;15.73;;;;;;;15.63;100.00;97133.84;4984151;28;20019;-96
2022/06/24 06:50:19;;;;;;;25.55;13.90;;;;;;;15.78;100.00;97135.66;4982258;28;20245;-96
2022/06/24 06:52:45;;;;;;;21.95;12.90;;;;;;;15.81;100.00;97137.25;4985402;28;20046;-96
2022/06/24 06:55:40;;;;;;;23.17;13.95;;;;;;;16.06;100.00;97114.84;4986594;28;20109;-95
2022/06/24 06:58:06;;;;;;;23.15;14.18;;;;;;;15.62;100.00;97117.25;4986720;28;20037;-95
2022/06/24 07:00:33;;;;;;;21.42;12.75;;;;;;;16.03;100.00;97121.97;4986628;28;20453;-95
2022/06/24 07:02:58;;;;;;;26.02;13.60;;;;;;;15.87;100.00;97121.16;5005770;28;20011;-95
2022/06/24 07:05:28;;;;;;;27.48;14.40;;;;;;;15.74;100.00;97123.59;4993412;28;20509;-95
2022/06/24 07:07:53;;;;;;;21.73;13.00;;;;;;;15.90;100.00;97120.97;4987099;28;20030;-96
2022/06/24 07:10:25;;;;;;;25.08;13.63;;;;;;;15.66;100.00;97126.66;4985453;28;20038;-96
2022/06/24 07:12:50;;;;;;;22.95;14.23;;;;;;;15.81;100.00;97119.72;5008550;28;20007;-94
2022/06/24 07:15:16;;;;;;;23.45;13.38;;;;;;;16.09;100.00;97119.91;5012313;28;20149;-96
2022/06/24 07:17:45;;;;;;;23.38;13.02;;;;;;;18.83;100.00;97079.84;5001160;28;20061;-95
2022/06/24 07:20:42;;;;;;;23.23;13.63;;;;;;;17.77;100.00;97061.41;4994775;28;20528;-94
2022/06/24 07:23:08;;;;;;;25.33;13.13;;;;;;;19.43;100.00;97068.56;4987315;28;20499;-93
2022/06/24 07:28:12;;;;;;;26.50;14.18;;;;;;;19.87;100.00;97058.34;5026598;28;20042;-92
2022/06/24 07:30:42;;;;;;;22.38;13.02;;;;;;;19.63;100.00;97060.97;5028944;28;20037;-91
2022/06/24 07:33:08;;;;;;;22.38;12.98;;;;;;;17.80;100.00;97066.47;5030472;28;20044;-92
2022/06/24 07:35:34;;;;;;;24.45;12.80;;;;;;;19.70;100.00;97062.19;5033668;28;20052;-92
2022/06/24 07:38:01;;;;;;;19.15;11.23;;;;;;;18.05;100.00;97074.50;5033770;28;20025;-91
2022/06/24 07:40:28;;;;;;;20.08;12.10;;;;;;;18.54;100.00;97082.72;5034071;28;20040;-93
2022/06/24 07:42:54;;;;;;;17.88;10.38;;;;;;;19.45;100.00;97077.19;5032102;28;20025;-91
2022/06/24 07:45:21;;;;;;;20.50;12.02;;;;;;;19.17;100.00;97070.41;5033222;28;20074;-92
2022/06/24 07:47:48;;;;;;;21.02;12.23;;;;;;;18.81;100.00;97076.47;5030866;28;20040;-92
2022/06/24 07:50:21;;;;;;;22.70;12.65;;;;;;;19.02;100.00;97069.69;5010532;28;20072;-92
2022/06/24 07:52:49;;;;;;;;;;;;;;;19.17;100.00;97066.94;5031049;28;20093;-92
2022/06/24 07:58:01;;;;;;;24.70;12.55;;;;;;;19.70;100.00;97053.44;5033743;28;20152;-93
2022/06/24 08:00:28;;;;;;;24.23;13.98;;;;;;;19.23;100.00;97051.50;5033324;28;20091;-92
2022/06/24 08:02:54;;;;;;;26.15;14.65;;;;;;;18.93;100.00;97051.88;5030079;28;20029;-92
2022/06/24 08:05:21;;;;;;;27.52;14.63;;;;;;;17.35;100.00;97066.72;5030685;28;20064;-91
2022/06/24 08:07:54;;;;;;;27.13;15.60;;;;;;;19.24;100.00;97065.53;5027934;28;20053;-93
2022/06/24 08:10:21;;;;;;;26.42;14.05;;;;;;;17.50;100.00;97057.00;5036107;28;20033;-93
2022/06/24 08:12:47;;;;;;;23.50;13.85;;;;;;;18.96;100.00;97053.47;5044695;28;20034;-94
2022/06/24 08:15:16;;;;;;;25.45;14.45;;;;;;;18.96;100.00;97062.22;5047037;28;20787;-93
2022/06/24 08:17:43;;;;;;;26.63;14.57;;;;;;;19.92;100.00;97047.44;5053101;28;20733;-93
2022/06/24 08:20:09;;;;;;;25.77;15.40;;;;;;;19.90;100.00;97044.03;5064952;28;20839;-92
2022/06/24 08:22:35;;;;;;;26.80;15.43;;;;;;;17.93;100.00;97053.38;5035519;28;20033;-92
2022/06/24 08:25:01;;;;;;;25.27;14.50;;;;;;;20.22;100.00;97043.44;5034062;28;20029;-93
2022/06/24 08:27:27;;;;;;;26.35;15.27;;;;;;;20.54;100.00;97030.38;5025829;28;20061;-92
2022/06/24 08:29:53;;;;;;;22.63;14.13;;;;;;;20.28;100.00;97033.22;5030492;28;20033;-93
2022/06/24 08:32:19;;;;;;;26.15;15.38;;;;;;;19.74;100.00;97042.50;5029151;28;20140;-92
2022/06/24 08:34:46;;;;;;;26.33;16.05;;;;;;;19.51;100.00;97049.50;5027184;28;20113;-93
2022/06/24 08:37:12;;;;;;;26.55;15.27;;;;;;;19.96;100.00;97040.97;5033464;28;20049;-93
2022/06/24 08:39:38;;;;;;;28.13;17.38;;;;;;;19.45;100.00;97029.63;5032331;28;20033;-93
2022/06/24 08:42:09;;;;;;;28.80;17.23;;;;;;;19.64;100.00;97038.00;5033123;28;20374;-92
2022/06/24 08:44:36;;;;;;;31.92;18.00;;;;;;;19.68;100.00;97042.97;5033388;28;20108;-94
2022/06/24 08:47:03;;;;;;;30.33;17.05;;;;;;;19.44;100.00;97022.66;5038892;28;20055;-93
2022/06/24 08:49:33;;;;;;;27.08;16.50;;;;;;;19.30;100.00;97043.94;5027149;28;20029;-92
2022/06/24 08:52:01;;;;;;;29.95;17.02;;;;;;;17.58;100.00;97038.91;5051565;28;20029;-92
2022/06/24 08:54:30;;;;;;;29.48;16.27;;;;;;;19.08;100.00;97040.22;5041327;28;20024;-93
2022/06/24 08:56:58;;;;;;;27.83;16.40;;;;;;;17.85;100.00;97054.69;5030287;28;20021;-93
2022/06/24 08:59:24;;;;;;;28.08;17.48;;;;;;;18.95;100.00;97041.19;5047420;28;20071;-93
2022/06/24 09:01:49;;;;;;;30.25;17.70;;;;;;;19.76;100.00;97048.53;5047862;28;20084;-93
2022/06/24 09:04:15;;;;;;;28.63;16.88;;;;;;;20.96;100.00;97025.34;5035132;28;20072;-93
2022/06/24 09:06:41;;;;;;;26.33;16.58;;;;;;;20.20;100.00;97042.72;5033849;28;20025;-93
2022/06/24 09:09:10;;;;;;;32.13;17.60;;;;;;;20.45;100.00;97021.31;5064396;28;20040;-94
2022/06/24 09:11:41;;;;;;;29.23;17.13;;;;;;;21.11;100.00;97019.78;5034330;28;20025;-93
2022/06/24 09:14:07;;;;;;;27.40;16.45;;;;;;;18.70;100.00;97027.03;5063331;28;20033;-93
2022/06/24 09:16:36;;;;;;;32.80;18.10;;;;;;;16.80;100.00;97049.91;5024364;28;20111;-93
2022/06/24 09:19:07;;;;;;;31.38;19.58;;;;;;;17.02;100.00;97054.72;5035492;28;20389;-93
2022/06/24 09:21:39;;;;;;;35.15;19.30;;;;;;;16.29;100.00;97066.16;5036909;28;20044;-93
2022/06/24 09:24:06;;;;;;;35.85;19.75;;;;;;;16.47;100.00;97066.84;5031734;28;20025;-92
2022/06/24 09:26:40;;;;;;;36.95;20.27;;;;;;;16.01;100.00;97071.25;5050423;28;20767;-94
2022/06/24 09:29:18;;;;;;;35.63;19.38;;;;;;;16.86;100.00;97062.72;5041904;28;20404;-93
2022/06/24 09:31:44;;;;;;;34.38;19.25;;;;;;;16.35;100.00;97065.78;5033678;28;20037;-91
2022/06/24 09:34:15;;;;;;;37.83;21.35;;;;;;;15.94;100.00;97064.66;5031984;28;20040;-92
2022/06/24 09:36:44;;;;;;;40.30;20.92;;;;;;;16.12;100.00;97067.16;5031109;28;20523;-90
2022/06/24 09:39:11;;;;;;;38.70;21.17;;;;;;;15.98;100.00;97066.16;5029394;28;20614;-91
2022/06/24 09:42:04;;;;;;;38.13;22.10;;;;;;;16.21;100.00;97064.84;5030545;28;20040;-90
2022/06/24 09:44:44;;;;;;;41.60;22.85;;;;;;;15.58;100.00;97057.91;5038419;28;20049;-92
2022/06/24 09:47:10;;;;;;;47.25;23.58;;;;;;;15.85;100.00;97070.44;5045447;28;20482;-89
2022/06/24 09:49:35;;;;;;;44.38;22.27;;;;;;;16.07;100.00;97066.56;5032018;28;20117;-91
2022/06/24 09:52:04;;;;;;;40.40;22.23;;;;;;;15.82;100.00;97070.63;5044676;28;20400;-90
2022/06/24 09:54:31;;;;;;;42.42;22.73;;;;;;;15.76;100.00;97063.91;5030631;28;20029;-91
2022/06/24 09:56:58;;;;;;;41.70;23.48;;;;;;;15.74;100.00;97062.28;5034096;28;20024;-91
2022/06/24 10:02:18;;;;;;;42.75;21.48;;;;;;;16.47;100.00;97051.06;5028909;28;20051;-91
2022/06/24 10:04:50;;;;;;;36.60;20.05;;;;;;;16.77;100.00;97047.47;5029057;28;20100;-91
2022/06/24 10:07:15;;;;;;;37.92;20.40;;;;;;;16.40;100.00;97040.06;5030049;28;20044;-91
2022/06/24 10:09:41;;;;;;;37.40;20.63;;;;;;;16.68;100.00;97039.19;5029221;28;20025;-91
2022/06/24 10:12:14;;;;;;;37.15;20.25;;;;;;;17.38;100.00;97030.50;5032746;28;20100;-91
2022/06/24 10:14:39;;;;;;;31.63;18.60;;;;;;;17.22;100.00;97024.50;5036752;28;20103;-91
2022/06/24 10:17:05;;;;;;;29.67;18.20;;;;;;;17.80;100.00;97026.94;5046132;28;20029;-92
2022/06/24 10:19:31;;;;;;;32.70;18.85;;;;;;;17.69;100.00;97020.59;5026665;28;20037;-91
2022/06/24 10:22:00;;;;;;;30.48;17.05;;;;;;;18.33;100.00;97026.94;5030549;28;20033;-91
2022/06/24 10:24:39;;;;;;;31.38;18.33;;;;;;;18.03;100.00;97028.06;5047339;28;20061;-93
2022/06/24 10:27:05;;;;;;;29.98;17.77;;;;;;;18.05;100.00;97021.75;5031605;28;20067;-92
2022/06/24 10:29:32;;;;;;;30.77;17.90;;;;;;;17.89;100.00;97018.41;5034072;28;20465;-93
2022/06/24 10:32:00;;;;;;;33.70;19.10;;;;;;;17.87;100.00;97013.25;5034607;28;20029;-91
2022/06/24 10:34:30;;;;;;;27.98;16.92;;;;;;;17.40;100.00;97023.31;5052390;28;20033;-93
2022/06/24 10:37:08;;;;;;;33.35;17.50;;;;;;;17.55;100.00;97018.84;5033569;28;20584;-92
2022/06/24 10:39:46;;;;;;;30.88;17.33;;;;;;;17.40;100.00;97020.69;5051063;28;20037;-93
2022/06/24 10:42:14;;;;;;;31.48;17.23;;;;;;;17.74;100.00;97029.03;5034547;28;20040;-93
2022/06/24 10:44:58;;;;;;;29.17;17.05;;;;;;;17.77;100.00;97017.41;5049382;28;20025;-92
2022/06/24 10:47:27;;;;;;;30.17;17.20;;;;;;;17.79;100.00;97017.34;5023861;28;20059;-93
2022/06/24 10:50:02;;;;;;;28.52;16.55;;;;;;;17.73;100.00;97027.34;5048137;28;20046;-92
2022/06/24 10:52:56;;;;;;;28.58;16.63;;;;;;;17.63;100.00;97025.41;5055020;28;20076;-92
2022/06/24 10:55:23;;;;;;;28.85;16.60;;;;;;;17.56;100.00;97027.59;5034908;28;20153;-92
2022/06/24 10:57:59;;;;;;;29.45;17.75;;;;;;;17.18;100.00;97031.75;5050410;28;20036;-91
2022/06/24 11:00:27;;;;;;;32.17;18.13;;;;;;;17.31;100.00;97038.88;5043388;28;20029;-92
2022/06/24 11:03:02;;;;;;;33.30;19.05;;;;;;;17.07;100.00;97047.41;5047747;28;20029;-94
2022/06/24 11:05:37;;;;;;;35.90;19.70;;;;;;;16.70;100.00;97041.75;5036049;28;20064;-93
2022/06/24 11:08:10;;;;;;;37.92;20.02;;;;;;;17.22;100.00;97032.41;5018425;28;20040;-93
2022/06/24 11:10:35;;;;;;;33.30;19.80;;;;;;;17.14;100.00;97037.31;5032632;28;20481;-92
2022/06/24 11:13:03;;;;;;;34.53;20.65;;;;;;;17.00;100.00;97039.03;5056517;28;20033;-92
2022/06/24 11:15:36;;;;;;;32.83;19.33;;;;;;;17.00;100.00;97039.03;5030813;28;20021;-92
2022/06/24 11:18:10;;;;;;;34.88;19.23;;;;;;;16.93;100.00;97034.25;5031621;28;20117;-94
2022/06/24 11:20:38;;;;;;;31.70;19.38;;;;;;;17.08;100.00;97029.78;5021412;28;20038;-92
2022/06/24 11:23:08;;;;;;;34.47;20.23;;;;;;;19.93;100.00;96998.84;5031279;28;20091;-93
2022/06/24 11:25:37;;;;;;;32.30;19.65;;;;;;;20.33;100.00;96981.72;5048565;28;20489;-94
2022/06/24 11:28:03;;;;;;;37.88;21.02;;;;;;;17.04;100.00;97006.28;5028894;28;20083;-93
2022/06/24 11:30:29;;;;;;;39.47;21.50;;;;;;;16.91;100.00;97013.28;5021329;28;20057;-91
2022/06/24 11:33:01;;;;;;;35.45;21.60;;;;;;;16.77;100.00;97016.75;5032266;28;20030;-90